sensor_id;sensor_type;location;lat;lon;timestamp;P1;durP1;ratioP1;P2;durP2;ratioP2
50165;SDS011;36071;48.140;11.516;2023-04-25T00:00:55;4.4;;;1.9;;
50165;SDS011;36071;48.140;11.516;2023-04-25T00:05:55;4.1;;;2.0;;
50165;SDS011;36071;48.140;11.516;2023-04-25T00:10:55;4.0;;;1.9;;
50165;SDS011;36071;48.140;11.516;2023-04-25T00:15:55;3.5;;;1.7;;
50165;SDS011;36071;48.140;11.516;2023-04-25T00:20:55;3.2;;;2.0;;
50165;SDS011;36071;48.140;11.516;2023-04-25T00:25:55;2.7;;;1.5;;
50165;SDS011;36071;48.140;11.516;2023-04-25T00:30:55;3.4;;;1.9;;
50165;SDS011;36071;48.140;11.516;2023-04-25T00:35:55;2.9;;;1.8;;
50165;SDS011;36071;48.140;11.516;2023-04-25T00:40:55;4.0;;;1.8;;
50165;SDS011;36071;48.140;11.516;2023-04-25T00:45:55;3.0;;;2.1;;
50165;SDS011;36071;48.140;11.516;2023-04-25T00:50:56;4.0;;;1.8;;
50165;SDS011;36071;48.140;11.516;2023-04-25T00:55:55;2.5;;;1.8;;
50165;SDS011;36071;48.140;11.516;2023-04-25T01:00:55;3.6;;;1.8;;
50165;SDS011;36071;48.140;11.516;2023-04-25T01:05:55;3.2;;;1.8;;
50165;SDS011;36071;48.140;11.516;2023-04-25T01:10:55;6.4;;;1.7;;
50165;SDS011;36071;48.140;11.516;2023-04-25T01:15:55;1.8;;;1.5;;
50165;SDS011;36071;48.140;11.516;2023-04-25T01:20:55;2.8;;;1.8;;
50165;SDS011;36071;48.140;11.516;2023-04-25T01:25:55;3.0;;;1.9;;
50165;SDS011;36071;48.140;11.516;2023-04-25T01:30:55;2.2;;;1.6;;
50165;SDS011;36071;48.140;11.516;2023-04-25T01:35:55;5.4;;;1.7;;
50165;SDS011;36071;48.140;11.516;2023-04-25T01:40:55;3.4;;;1.9;;
50165;SDS011;36071;48.140;11.516;2023-04-25T01:45:56;3.3;;;2.4;;
50165;SDS011;36071;48.140;11.516;2023-04-25T01:50:55;3.8;;;1.8;;
50165;SDS011;36071;48.140;11.516;2023-04-25T01:55:55;2.1;;;1.7;;
50165;SDS011;36071;48.140;11.516;2023-04-25T02:00:55;5.5;;;2.1;;
50165;SDS011;36071;48.140;11.516;2023-04-25T02:05:55;3.8;;;1.9;;
50165;SDS011;36071;48.140;11.516;2023-04-25T02:10:55;3.8;;;2.2;;
50165;SDS011;36071;48.140;11.516;2023-04-25T02:15:55;6.3;;;2.5;;
50165;SDS011;36071;48.140;11.516;2023-04-25T02:20:55;5.2;;;2.6;;
50165;SDS011;36071;48.140;11.516;2023-04-25T02:25:56;4.1;;;2.1;;
50165;SDS011;36071;48.140;11.516;2023-04-25T02:30:55;3.0;;;1.9;;
50165;SDS011;36071;48.140;11.516;2023-04-25T02:35:55;3.9;;;2.1;;
50165;SDS011;36071;48.140;11.516;2023-04-25T02:40:55;2.8;;;1.8;;
50165;SDS011;36071;48.140;11.516;2023-04-25T02:45:55;3.9;;;1.9;;
50165;SDS011;36071;48.140;11.516;2023-04-25T02:50:55;5.2;;;2.0;;
50165;SDS011;36071;48.140;11.516;2023-04-25T02:55:55;4.8;;;2.0;;
50165;SDS011;36071;48.140;11.516;2023-04-25T03:00:55;4.7;;;1.9;;
50165;SDS011;36071;48.140;11.516;2023-04-25T03:05:55;3.8;;;1.9;;
50165;SDS011;36071;48.140;11.516;2023-04-25T03:10:55;3.6;;;2.2;;
50165;SDS011;36071;48.140;11.516;2023-04-25T03:15:55;4.3;;;2.1;;
50165;SDS011;36071;48.140;11.516;2023-04-25T03:20:55;8.1;;;2.0;;
50165;SDS011;36071;48.140;11.516;2023-04-25T03:25:55;5.8;;;2.1;;
50165;SDS011;36071;48.140;11.516;2023-04-25T03:30:55;5.5;;;2.1;;
50165;SDS011;36071;48.140;11.516;2023-04-25T03:35:55;4.9;;;1.9;;
50165;SDS011;36071;48.140;11.516;2023-04-25T03:40:55;3.9;;;2.0;;
50165;SDS011;36071;48.140;11.516;2023-04-25T03:45:55;3.3;;;1.5;;
50165;SDS011;36071;48.140;11.516;2023-04-25T03:50:55;3.9;;;1.6;;
50165;SDS011;36071;48.140;11.516;2023-04-25T03:55:55;4.4;;;1.9;;
50165;SDS011;36071;48.140;11.516;2023-04-25T04:00:55;3.8;;;1.6;;
50165;SDS011;36071;48.140;11.516;2023-04-25T04:05:55;3.5;;;1.7;;
50165;SDS011;36071;48.140;11.516;2023-04-25T04:10:56;3.5;;;1.5;;
50165;SDS011;36071;48.140;11.516;2023-04-25T04:15:55;2.3;;;1.1;;
50165;SDS011;36071;48.140;11.516;2023-04-25T04:20:55;3.8;;;1.4;;
50165;SDS011;36071;48.140;11.516;2023-04-25T04:25:55;7.4;;;1.7;;
50165;SDS011;36071;48.140;11.516;2023-04-25T04:30:55;2.9;;;1.5;;
50165;SDS011;36071;48.140;11.516;2023-04-25T04:35:55;4.3;;;1.7;;
50165;SDS011;36071;48.140;11.516;2023-04-25T04:40:55;4.1;;;1.8;;
50165;SDS011;36071;48.140;11.516;2023-04-25T04:45:55;4.1;;;1.9;;
50165;SDS011;36071;48.140;11.516;2023-04-25T04:50:55;7.7;;;3.2;;
50165;SDS011;36071;48.140;11.516;2023-04-25T04:55:55;6.0;;;2.7;;
50165;SDS011;36071;48.140;11.516;2023-04-25T05:00:55;6.6;;;2.6;;
50165;SDS011;36071;48.140;11.516;2023-04-25T05:05:55;15.5;;;6.0;;
50165;SDS011;36071;48.140;11.516;2023-04-25T05:10:55;4.6;;;2.6;;
50165;SDS011;36071;48.140;11.516;2023-04-25T05:15:55;6.3;;;2.9;;
50165;SDS011;36071;48.140;11.516;2023-04-25T05:20:55;4.5;;;2.3;;
50165;SDS011;36071;48.140;11.516;2023-04-25T05:25:55;8.2;;;3.1;;
50165;SDS011;36071;48.140;11.516;2023-04-25T05:30:55;8.3;;;3.5;;
50165;SDS011;36071;48.140;11.516;2023-04-25T05:35:55;5.2;;;2.4;;
50165;SDS011;36071;48.140;11.516;2023-04-25T05:40:55;7.3;;;2.4;;
50165;SDS011;36071;48.140;11.516;2023-04-25T05:45:55;6.4;;;2.2;;
50165;SDS011;36071;48.140;11.516;2023-04-25T05:50:55;3.7;;;2.1;;
50165;SDS011;36071;48.140;11.516;2023-04-25T05:55:55;5.8;;;2.0;;
50165;SDS011;36071;48.140;11.516;2023-04-25T06:00:55;9.9;;;3.1;;
50165;SDS011;36071;48.140;11.516;2023-04-25T06:05:55;6.3;;;2.3;;
50165;SDS011;36071;48.140;11.516;2023-04-25T06:10:55;6.2;;;2.1;;
50165;SDS011;36071;48.140;11.516;2023-04-25T06:15:55;6.9;;;2.3;;
50165;SDS011;36071;48.140;11.516;2023-04-25T06:20:55;7.8;;;2.8;;
50165;SDS011;36071;48.140;11.516;2023-04-25T06:25:55;5.3;;;2.5;;
50165;SDS011;36071;48.140;11.516;2023-04-25T06:30:55;5.0;;;2.1;;
50165;SDS011;36071;48.140;11.516;2023-04-25T06:35:55;4.8;;;2.4;;
50165;SDS011;36071;48.140;11.516;2023-04-25T06:40:55;5.7;;;2.5;;
50165;SDS011;36071;48.140;11.516;2023-04-25T06:45:55;5.7;;;2.8;;
50165;SDS011;36071;48.140;11.516;2023-04-25T06:50:55;4.3;;;2.8;;
50165;SDS011;36071;48.140;11.516;2023-04-25T06:55:55;6.6;;;3.0;;
50165;SDS011;36071;48.140;11.516;2023-04-25T07:00:55;9.1;;;3.2;;
50165;SDS011;36071;48.140;11.516;2023-04-25T07:05:55;5.9;;;2.6;;
50165;SDS011;36071;48.140;11.516;2023-04-25T07:10:55;8.6;;;4.1;;
50165;SDS011;36071;48.140;11.516;2023-04-25T07:15:55;7.0;;;2.9;;
50165;SDS011;36071;48.140;11.516;2023-04-25T07:20:55;4.8;;;2.2;;
50165;SDS011;36071;48.140;11.516;2023-04-25T07:25:55;7.7;;;3.2;;
50165;SDS011;36071;48.140;11.516;2023-04-25T07:30:55;6.5;;;2.8;;
50165;SDS011;36071;48.140;11.516;2023-04-25T07:35:56;5.1;;;2.7;;
50165;SDS011;36071;48.140;11.516;2023-04-25T07:40:55;13.8;;;7.7;;
50165;SDS011;36071;48.140;11.516;2023-04-25T07:45:55;9.0;;;4.1;;
50165;SDS011;36071;48.140;11.516;2023-04-25T07:50:55;5.2;;;3.0;;
50165;SDS011;36071;48.140;11.516;2023-04-25T07:55:55;9.8;;;5.8;;
50165;SDS011;36071;48.140;11.516;2023-04-25T08:00:55;6.6;;;3.5;;
50165;SDS011;36071;48.140;11.516;2023-04-25T08:05:55;7.8;;;4.6;;
50165;SDS011;36071;48.140;11.516;2023-04-25T08:10:56;7.1;;;2.7;;
50165;SDS011;36071;48.140;11.516;2023-04-25T08:15:55;6.2;;;2.7;;
50165;SDS011;36071;48.140;11.516;2023-04-25T08:20:55;3.5;;;2.5;;
50165;SDS011;36071;48.140;11.516;2023-04-25T08:25:55;4.9;;;2.6;;
50165;SDS011;36071;48.140;11.516;2023-04-25T08:30:55;3.8;;;2.0;;
50165;SDS011;36071;48.140;11.516;2023-04-25T08:35:55;7.3;;;2.6;;
50165;SDS011;36071;48.140;11.516;2023-04-25T08:40:55;3.8;;;1.9;;
50165;SDS011;36071;48.140;11.516;2023-04-25T08:45:55;4.9;;;2.9;;
50165;SDS011;36071;48.140;11.516;2023-04-25T08:50:56;4.1;;;1.6;;
50165;SDS011;36071;48.140;11.516;2023-04-25T08:55:57;3.6;;;1.5;;
50165;SDS011;36071;48.140;11.516;2023-04-25T09:00:55;1.6;;;1.1;;
50165;SDS011;36071;48.140;11.516;2023-04-25T09:05:57;3.5;;;1.3;;
50165;SDS011;36071;48.140;11.516;2023-04-25T09:10:55;4.1;;;1.5;;
50165;SDS011;36071;48.140;11.516;2023-04-25T09:15:58;3.4;;;1.2;;
50165;SDS011;36071;48.140;11.516;2023-04-25T09:20:56;5.2;;;1.7;;
50165;SDS011;36071;48.140;11.516;2023-04-25T09:25:55;2.2;;;1.3;;
50165;SDS011;36071;48.140;11.516;2023-04-25T09:30:56;2.9;;;1.4;;
50165;SDS011;36071;48.140;11.516;2023-04-25T09:36:00;3.7;;;1.5;;
50165;SDS011;36071;48.140;11.516;2023-04-25T09:40:55;2.1;;;1.6;;
50165;SDS011;36071;48.140;11.516;2023-04-25T09:45:55;4.2;;;1.6;;
50165;SDS011;36071;48.140;11.516;2023-04-25T09:51:05;2.6;;;1.4;;
50165;SDS011;36071;48.140;11.516;2023-04-25T09:55:55;4.1;;;1.6;;
50165;SDS011;36071;48.140;11.516;2023-04-25T10:00:55;3.6;;;1.6;;
50165;SDS011;36071;48.140;11.516;2023-04-25T10:05:55;1.8;;;1.3;;
50165;SDS011;36071;48.140;11.516;2023-04-25T10:10:55;3.6;;;1.6;;
50165;SDS011;36071;48.140;11.516;2023-04-25T10:20:56;5.4;;;2.7;;
50165;SDS011;36071;48.140;11.516;2023-04-25T10:25:55;7.3;;;3.3;;
50165;SDS011;36071;48.140;11.516;2023-04-25T10:30:56;4.0;;;1.7;;
50165;SDS011;36071;48.140;11.516;2023-04-25T10:35:57;3.6;;;1.6;;
50165;SDS011;36071;48.140;11.516;2023-04-25T10:41:03;3.1;;;1.5;;
50165;SDS011;36071;48.140;11.516;2023-04-25T10:45:55;2.2;;;1.1;;
50165;SDS011;36071;48.140;11.516;2023-04-25T10:51:06;2.1;;;1.3;;
50165;SDS011;36071;48.140;11.516;2023-04-25T10:55:55;2.0;;;1.4;;
50165;SDS011;36071;48.140;11.516;2023-04-25T11:00:55;3.2;;;1.7;;
50165;SDS011;36071;48.140;11.516;2023-04-25T11:05:55;3.4;;;1.4;;
50165;SDS011;36071;48.140;11.516;2023-04-25T11:10:55;3.0;;;1.8;;
50165;SDS011;36071;48.140;11.516;2023-04-25T11:15:55;1.7;;;1.3;;
50165;SDS011;36071;48.140;11.516;2023-04-25T11:20:55;2.6;;;1.4;;
50165;SDS011;36071;48.140;11.516;2023-04-25T11:25:55;2.1;;;0.9;;
50165;SDS011;36071;48.140;11.516;2023-04-25T11:30:55;2.5;;;1.2;;
50165;SDS011;36071;48.140;11.516;2023-04-25T11:35:55;8.4;;;3.8;;
50165;SDS011;36071;48.140;11.516;2023-04-25T11:40:55;9.0;;;4.6;;
50165;SDS011;36071;48.140;11.516;2023-04-25T11:45:55;4.6;;;1.8;;
50165;SDS011;36071;48.140;11.516;2023-04-25T11:50:55;4.6;;;2.3;;
50165;SDS011;36071;48.140;11.516;2023-04-25T11:55:55;3.7;;;1.4;;
50165;SDS011;36071;48.140;11.516;2023-04-25T12:00:55;4.1;;;1.9;;
50165;SDS011;36071;48.140;11.516;2023-04-25T12:05:55;2.8;;;1.4;;
50165;SDS011;36071;48.140;11.516;2023-04-25T12:10:55;1.6;;;1.1;;
50165;SDS011;36071;48.140;11.516;2023-04-25T12:15:55;2.1;;;1.4;;
50165;SDS011;36071;48.140;11.516;2023-04-25T12:20:55;1.4;;;1.0;;
50165;SDS011;36071;48.140;11.516;2023-04-25T12:25:55;1.8;;;1.1;;
50165;SDS011;36071;48.140;11.516;2023-04-25T12:30:56;1.7;;;0.9;;
50165;SDS011;36071;48.140;11.516;2023-04-25T12:35:55;2.9;;;1.3;;
50165;SDS011;36071;48.140;11.516;2023-04-25T12:40:55;1.5;;;0.7;;
50165;SDS011;36071;48.140;11.516;2023-04-25T12:45:55;4.1;;;1.5;;
50165;SDS011;36071;48.140;11.516;2023-04-25T12:50:55;2.9;;;1.7;;
50165;SDS011;36071;48.140;11.516;2023-04-25T12:55:55;4.7;;;2.8;;
50165;SDS011;36071;48.140;11.516;2023-04-25T13:00:55;3.4;;;1.8;;
50165;SDS011;36071;48.140;11.516;2023-04-25T13:05:55;2.5;;;1.1;;
50165;SDS011;36071;48.140;11.516;2023-04-25T13:10:55;2.5;;;1.2;;
50165;SDS011;36071;48.140;11.516;2023-04-25T13:15:55;2.3;;;1.2;;
50165;SDS011;36071;48.140;11.516;2023-04-25T13:20:55;2.6;;;1.2;;
50165;SDS011;36071;48.140;11.516;2023-04-25T13:25:55;2.4;;;1.1;;
50165;SDS011;36071;48.140;11.516;2023-04-25T13:30:55;3.4;;;1.8;;
50165;SDS011;36071;48.140;11.516;2023-04-25T13:35:55;4.4;;;2.4;;
50165;SDS011;36071;48.140;11.516;2023-04-25T13:40:55;4.7;;;2.1;;
50165;SDS011;36071;48.140;11.516;2023-04-25T13:45:55;3.7;;;1.5;;
50165;SDS011;36071;48.140;11.516;2023-04-25T13:50:55;2.0;;;1.2;;
50165;SDS011;36071;48.140;11.516;2023-04-25T13:55:55;2.3;;;1.4;;
50165;SDS011;36071;48.140;11.516;2023-04-25T14:00:55;1.8;;;1.4;;
50165;SDS011;36071;48.140;11.516;2023-04-25T14:05:55;1.5;;;1.0;;
50165;SDS011;36071;48.140;11.516;2023-04-25T14:10:55;13.2;;;7.4;;
50165;SDS011;36071;48.140;11.516;2023-04-25T14:15:55;5.4;;;2.4;;
50165;SDS011;36071;48.140;11.516;2023-04-25T14:20:55;2.9;;;1.7;;
50165;SDS011;36071;48.140;11.516;2023-04-25T14:25:55;2.6;;;1.3;;
50165;SDS011;36071;48.140;11.516;2023-04-25T14:30:55;2.0;;;1.2;;
50165;SDS011;36071;48.140;11.516;2023-04-25T14:35:55;1.5;;;1.1;;
50165;SDS011;36071;48.140;11.516;2023-04-25T14:40:57;1.3;;;1.1;;
50165;SDS011;36071;48.140;11.516;2023-04-25T14:45:55;2.0;;;0.9;;
50165;SDS011;36071;48.140;11.516;2023-04-25T14:50:56;0.6;;;0.6;;
50165;SDS011;36071;48.140;11.516;2023-04-25T14:55:55;0.8;;;0.5;;
50165;SDS011;36071;48.140;11.516;2023-04-25T15:00:55;1.0;;;0.7;;
50165;SDS011;36071;48.140;11.516;2023-04-25T15:05:55;1.2;;;0.7;;
50165;SDS011;36071;48.140;11.516;2023-04-25T15:10:55;1.1;;;0.8;;
50165;SDS011;36071;48.140;11.516;2023-04-25T15:15:55;16.9;;;7.9;;
50165;SDS011;36071;48.140;11.516;2023-04-25T15:20:55;3.8;;;2.0;;
50165;SDS011;36071;48.140;11.516;2023-04-25T15:25:55;1.1;;;0.9;;
50165;SDS011;36071;48.140;11.516;2023-04-25T15:30:55;1.3;;;1.0;;
50165;SDS011;36071;48.140;11.516;2023-04-25T15:35:55;2.0;;;1.3;;
50165;SDS011;36071;48.140;11.516;2023-04-25T15:40:55;3.0;;;1.8;;
50165;SDS011;36071;48.140;11.516;2023-04-25T15:45:55;5.7;;;2.4;;
50165;SDS011;36071;48.140;11.516;2023-04-25T15:50:55;3.0;;;1.8;;
50165;SDS011;36071;48.140;11.516;2023-04-25T15:55:55;5.3;;;2.7;;
50165;SDS011;36071;48.140;11.516;2023-04-25T16:00:55;3.9;;;1.9;;
50165;SDS011;36071;48.140;11.516;2023-04-25T16:05:55;6.8;;;3.7;;
50165;SDS011;36071;48.140;11.516;2023-04-25T16:10:55;3.8;;;1.9;;
50165;SDS011;36071;48.140;11.516;2023-04-25T16:15:55;3.5;;;1.7;;
50165;SDS011;36071;48.140;11.516;2023-04-25T16:20:55;4.2;;;2.6;;
50165;SDS011;36071;48.140;11.516;2023-04-25T16:25:55;7.7;;;4.2;;
50165;SDS011;36071;48.140;11.516;2023-04-25T16:30:55;26.0;;;16.6;;
50165;SDS011;36071;48.140;11.516;2023-04-25T16:35:55;42.3;;;24.2;;
50165;SDS011;36071;48.140;11.516;2023-04-25T16:40:55;4.8;;;2.5;;
50165;SDS011;36071;48.140;11.516;2023-04-25T16:45:55;6.3;;;3.6;;
50165;SDS011;36071;48.140;11.516;2023-04-25T16:50:55;5.6;;;3.3;;
50165;SDS011;36071;48.140;11.516;2023-04-25T16:55:55;7.7;;;4.5;;
50165;SDS011;36071;48.140;11.516;2023-04-25T17:00:55;3.9;;;2.3;;
50165;SDS011;36071;48.140;11.516;2023-04-25T17:05:55;4.1;;;2.8;;
50165;SDS011;36071;48.140;11.516;2023-04-25T17:10:55;4.5;;;2.9;;
50165;SDS011;36071;48.140;11.516;2023-04-25T17:15:55;4.5;;;2.5;;
50165;SDS011;36071;48.140;11.516;2023-04-25T17:20:55;4.4;;;2.6;;
50165;SDS011;36071;48.140;11.516;2023-04-25T17:25:55;6.3;;;3.1;;
50165;SDS011;36071;48.140;11.516;2023-04-25T17:30:55;4.9;;;3.1;;
50165;SDS011;36071;48.140;11.516;2023-04-25T17:35:55;7.1;;;3.1;;
50165;SDS011;36071;48.140;11.516;2023-04-25T17:40:55;5.2;;;3.0;;
50165;SDS011;36071;48.140;11.516;2023-04-25T17:45:55;6.3;;;3.2;;
50165;SDS011;36071;48.140;11.516;2023-04-25T17:50:55;6.8;;;4.8;;
50165;SDS011;36071;48.140;11.516;2023-04-25T17:55:55;6.8;;;4.0;;
50165;SDS011;36071;48.140;11.516;2023-04-25T18:00:55;10.9;;;6.7;;
50165;SDS011;36071;48.140;11.516;2023-04-25T18:05:55;6.9;;;3.8;;
50165;SDS011;36071;48.140;11.516;2023-04-25T18:10:55;10.9;;;6.0;;
50165;SDS011;36071;48.140;11.516;2023-04-25T18:15:55;5.4;;;3.2;;
50165;SDS011;36071;48.140;11.516;2023-04-25T18:20:55;8.7;;;4.6;;
50165;SDS011;36071;48.140;11.516;2023-04-25T18:25:55;15.0;;;6.4;;
50165;SDS011;36071;48.140;11.516;2023-04-25T18:30:55;4.2;;;2.5;;
50165;SDS011;36071;48.140;11.516;2023-04-25T18:35:55;3.3;;;1.8;;
50165;SDS011;36071;48.140;11.516;2023-04-25T18:40:55;3.4;;;2.1;;
50165;SDS011;36071;48.140;11.516;2023-04-25T18:45:55;5.1;;;3.0;;
50165;SDS011;36071;48.140;11.516;2023-04-25T18:50:55;6.5;;;3.5;;
50165;SDS011;36071;48.140;11.516;2023-04-25T18:55:55;6.4;;;3.5;;
50165;SDS011;36071;48.140;11.516;2023-04-25T19:00:55;8.4;;;4.0;;
50165;SDS011;36071;48.140;11.516;2023-04-25T19:05:55;30.2;;;16.8;;
50165;SDS011;36071;48.140;11.516;2023-04-25T19:10:55;36.3;;;20.1;;
50165;SDS011;36071;48.140;11.516;2023-04-25T19:15:55;18.9;;;9.8;;
50165;SDS011;36071;48.140;11.516;2023-04-25T19:20:55;12.6;;;7.2;;
50165;SDS011;36071;48.140;11.516;2023-04-25T19:25:55;9.4;;;5.6;;
50165;SDS011;36071;48.140;11.516;2023-04-25T19:30:55;23.9;;;13.3;;
50165;SDS011;36071;48.140;11.516;2023-04-25T19:35:55;14.3;;;8.9;;
50165;SDS011;36071;48.140;11.516;2023-04-25T19:40:55;9.1;;;5.1;;
50165;SDS011;36071;48.140;11.516;2023-04-25T19:45:55;10.6;;;5.8;;
50165;SDS011;36071;48.140;11.516;2023-04-25T19:50:55;6.7;;;4.3;;
50165;SDS011;36071;48.140;11.516;2023-04-25T19:55:56;8.3;;;4.3;;
50165;SDS011;36071;48.140;11.516;2023-04-25T20:00:55;4.9;;;3.7;;
50165;SDS011;36071;48.140;11.516;2023-04-25T20:05:55;6.6;;;4.2;;
50165;SDS011;36071;48.140;11.516;2023-04-25T20:10:55;9.5;;;4.0;;
50165;SDS011;36071;48.140;11.516;2023-04-25T20:15:55;6.3;;;4.1;;
50165;SDS011;36071;48.140;11.516;2023-04-25T20:20:55;6.7;;;4.0;;
50165;SDS011;36071;48.140;11.516;2023-04-25T20:25:55;7.2;;;4.5;;
50165;SDS011;36071;48.140;11.516;2023-04-25T20:30:55;9.0;;;5.1;;
50165;SDS011;36071;48.140;11.516;2023-04-25T20:35:55;6.6;;;4.6;;
50165;SDS011;36071;48.140;11.516;2023-04-25T20:40:55;8.3;;;4.9;;
50165;SDS011;36071;48.140;11.516;2023-04-25T20:45:55;7.7;;;5.0;;
50165;SDS011;36071;48.140;11.516;2023-04-25T20:50:55;7.5;;;4.9;;
50165;SDS011;36071;48.140;11.516;2023-04-25T21:00:55;9.2;;;4.5;;
50165;SDS011;36071;48.140;11.516;2023-04-25T21:05:55;6.5;;;4.2;;
50165;SDS011;36071;48.140;11.516;2023-04-25T21:10:55;8.5;;;4.6;;
50165;SDS011;36071;48.140;11.516;2023-04-25T21:15:56;7.5;;;4.8;;
50165;SDS011;36071;48.140;11.516;2023-04-25T21:20:55;8.7;;;4.7;;
50165;SDS011;36071;48.140;11.516;2023-04-25T21:25:55;7.8;;;4.9;;
50165;SDS011;36071;48.140;11.516;2023-04-25T21:30:55;5.7;;;4.3;;
50165;SDS011;36071;48.140;11.516;2023-04-25T21:35:55;6.6;;;4.3;;
50165;SDS011;36071;48.140;11.516;2023-04-25T21:40:55;8.1;;;4.5;;
50165;SDS011;36071;48.140;11.516;2023-04-25T21:45:55;8.9;;;5.0;;
50165;SDS011;36071;48.140;11.516;2023-04-25T21:50:55;7.2;;;4.5;;
50165;SDS011;36071;48.140;11.516;2023-04-25T21:55:55;6.4;;;4.5;;
50165;SDS011;36071;48.140;11.516;2023-04-25T22:00:55;7.8;;;4.8;;
50165;SDS011;36071;48.140;11.516;2023-04-25T22:05:55;6.8;;;4.2;;
50165;SDS011;36071;48.140;11.516;2023-04-25T22:10:55;6.3;;;3.9;;
50165;SDS011;36071;48.140;11.516;2023-04-25T22:15:55;6.2;;;3.8;;
50165;SDS011;36071;48.140;11.516;2023-04-25T22:20:55;8.2;;;4.5;;
50165;SDS011;36071;48.140;11.516;2023-04-25T22:25:55;6.7;;;4.2;;
50165;SDS011;36071;48.140;11.516;2023-04-25T22:35:55;6.4;;;4.6;;
50165;SDS011;36071;48.140;11.516;2023-04-25T22:40:55;6.8;;;4.4;;
50165;SDS011;36071;48.140;11.516;2023-04-25T22:45:55;6.2;;;4.2;;
50165;SDS011;36071;48.140;11.516;2023-04-25T22:51:03;6.7;;;4.4;;
50165;SDS011;36071;48.140;11.516;2023-04-25T22:55:55;6.3;;;4.7;;
50165;SDS011;36071;48.140;11.516;2023-04-25T23:00:56;8.0;;;5.4;;
50165;SDS011;36071;48.140;11.516;2023-04-25T23:05:55;9.2;;;5.6;;
50165;SDS011;36071;48.140;11.516;2023-04-25T23:10:55;7.5;;;5.3;;
50165;SDS011;36071;48.140;11.516;2023-04-25T23:15:55;9.4;;;5.7;;
50165;SDS011;36071;48.140;11.516;2023-04-25T23:20:55;10.4;;;5.6;;
50165;SDS011;36071;48.140;11.516;2023-04-25T23:25:55;11.4;;;7.1;;
50165;SDS011;36071;48.140;11.516;2023-04-25T23:31:01;11.5;;;7.0;;
50165;SDS011;36071;48.140;11.516;2023-04-25T23:35:55;14.2;;;7.2;;
50165;SDS011;36071;48.140;11.516;2023-04-25T23:40:56;12.2;;;7.3;;
50165;SDS011;36071;48.140;11.516;2023-04-25T23:45:55;14.2;;;7.7;;
50165;SDS011;36071;48.140;11.516;2023-04-25T23:50:56;14.9;;;8.6;;
50165;SDS011;36071;48.140;11.516;2023-04-25T23:55:55;16.4;;;9.2;;
